createdAt,value
2023-04-10T00:00:37.093Z,99942.19
2023-04-10T00:03:41.780Z,99939.22
2023-04-10T00:06:46.586Z,99934.84
2023-04-10T00:09:50.078Z,99944.63
2023-04-10T00:12:55.784Z,99940.69
2023-04-10T00:15:59.330Z,99937.41
2023-04-10T00:19:02.786Z,99921.09
2023-04-10T00:22:08.007Z,99927.28
2023-04-10T00:25:11.556Z,99917.22
2023-04-10T00:28:16.025Z,99919.88
2023-04-10T00:31:19.569Z,99915.38
2023-04-10T00:34:22.899Z,99919.59
2023-04-10T00:37:28.028Z,99921.81
2023-04-10T00:40:31.862Z,99928.69
2023-04-10T00:43:35.502Z,99922.25
2023-04-10T00:46:40.629Z,99926.59
2023-04-10T00:49:45.940Z,99932.41
2023-04-10T00:52:52.094Z,99931.00
2023-04-10T00:55:56.158Z,99926.50
2023-04-10T00:58:59.970Z,99931.00
2023-04-10T01:02:04.425Z,99930.63
2023-04-10T01:05:09.451Z,99927.66
2023-04-10T01:08:25.991Z,99921.75
2023-04-10T01:11:41.027Z,99915.31
2023-04-10T01:14:54.775Z,99922.88
2023-04-10T01:18:03.843Z,99930.81
2023-04-10T01:21:09.877Z,99920.06
2023-04-10T01:24:32.849Z,99925.97
2023-04-10T01:27:45.929Z,99923.19
2023-04-10T01:30:53.646Z,99924.13
2023-04-10T01:34:03.792Z,99926.50
2023-04-10T01:37:15.520Z,99926.75
2023-04-10T01:40:21.445Z,99931.41
2023-04-10T01:43:27.791Z,99935.09
2023-04-10T01:46:34.089Z,99936.25
2023-04-10T01:49:42.745Z,99937.13
2023-04-10T01:52:50.050Z,99935.63
2023-04-10T01:55:59.641Z,99928.66
2023-04-10T01:59:05.795Z,99928.16
2023-04-10T02:02:12.542Z,99932.75
2023-04-10T02:05:18.325Z,99934.06
2023-04-10T02:08:27.800Z,99938.97
2023-04-10T02:11:39.877Z,99933.81
2023-04-10T02:14:46.434Z,99936.28
2023-04-10T02:17:53.356Z,99928.34
2023-04-10T02:20:57.347Z,99929.38
2023-04-10T02:24:01.595Z,99910.81
2023-04-10T02:27:05.437Z,99917.31
2023-04-10T02:30:10.097Z,99919.97
2023-04-10T02:33:15.529Z,99915.78
2023-04-10T02:36:19.112Z,99912.50
2023-04-10T02:39:22.597Z,99918.53
2023-04-10T02:42:28.529Z,99925.59
2023-04-10T02:45:36.116Z,99928.69
2023-04-10T02:48:41.541Z,99936.28
2023-04-10T02:51:45.324Z,99946.13
2023-04-10T02:54:48.771Z,99945.44
2023-04-10T02:57:52.193Z,99948.94
2023-04-10T03:00:55.729Z,99949.00
2023-04-10T03:04:07.232Z,99948.31
2023-04-10T03:07:15.128Z,99942.41
2023-04-10T03:10:18.925Z,99941.56
2023-04-10T03:13:23.433Z,99941.56
2023-04-10T03:16:27.391Z,99937.50
2023-04-10T03:19:35.617Z,99928.66
2023-04-10T03:22:39.868Z,99929.03
2023-04-10T03:25:44.948Z,99934.63
2023-04-10T03:28:48.798Z,99937.50
2023-04-10T03:31:52.416Z,99942.41
2023-04-10T03:34:57.352Z,99938.94
2023-04-10T03:38:01.135Z,99938.00
2023-04-10T03:41:04.610Z,99936.31
2023-04-10T03:44:09.328Z,99933.56
2023-04-10T03:47:13.789Z,99936.06
2023-04-10T03:50:22.651Z,99936.00
2023-04-10T03:53:36.377Z,99938.06
2023-04-10T03:56:44.172Z,99931.31
2023-04-10T03:59:48.246Z,99939.44
2023-04-10T04:02:52.537Z,99942.19
2023-04-10T04:06:17.920Z,99950.38
2023-04-10T04:09:39.724Z,99946.25
2023-04-10T04:12:52.620Z,99956.22
2023-04-10T04:16:12.448Z,99948.47
2023-04-10T04:19:27.933Z,99948.09
2023-04-10T04:22:47.597Z,99953.00
2023-04-10T04:26:17.268Z,99946.84
2023-04-10T04:29:40.861Z,99951.06
2023-04-10T04:32:55.181Z,99957.56
2023-04-10T04:36:17.334Z,99964.34
2023-04-10T04:39:41.237Z,99961.13
2023-04-10T04:43:07.507Z,99970.78
2023-04-10T04:46:34.428Z,99964.47
2023-04-10T04:49:56.365Z,99965.25
2023-04-10T04:53:18.234Z,99967.91
2023-04-10T04:56:36.566Z,99974.16
2023-04-10T04:59:46.896Z,99976.97
2023-04-10T05:03:09.091Z,99978.84
2023-04-10T05:06:12.678Z,99983.25
2023-04-10T05:09:34.883Z,99992.88
2023-04-10T05:13:01.421Z,100000.75
2023-04-10T05:16:12.442Z,99995.88
2023-04-10T05:19:47.454Z,99997.06
2023-04-10T05:23:00.762Z,99994.69
2023-04-10T05:26:24.538Z,100000.91
2023-04-10T05:29:49.068Z,99995.25
2023-04-10T05:33:16.020Z,100007.09
2023-04-10T05:36:27.793Z,100005.88
2023-04-10T05:40:00.848Z,100013.44
2023-04-10T05:43:33.479Z,100006.16
2023-04-10T05:46:49.919Z,100004.69
2023-04-10T05:50:19.845Z,100013.81
2023-04-10T05:53:47.095Z,100018.31
2023-04-10T05:57:22.559Z,100016.72
2023-04-10T06:00:40.321Z,100011.16
2023-04-10T06:04:05.345Z,100008.47
2023-04-10T06:07:09.807Z,100004.34
2023-04-10T06:10:13.595Z,100013.19
2023-04-10T06:13:17.263Z,100016.72
2023-04-10T06:16:21.704Z,100021.75
2023-04-10T06:19:26.876Z,100022.41
2023-04-10T06:22:30.216Z,100013.00
2023-04-10T06:25:33.862Z,100013.91
2023-04-10T06:28:37.409Z,100008.25
2023-04-10T06:31:41.144Z,100006.16
2023-04-10T06:34:46.649Z,100000.69
2023-04-10T06:37:50.547Z,100008.09
2023-04-10T06:40:54.105Z,100013.69
2023-04-10T06:43:57.722Z,100016.41
2023-04-10T06:47:01.448Z,100015.63
2023-04-10T06:50:07.137Z,100021.75
2023-04-10T06:53:10.805Z,100022.28
2023-04-10T06:56:14.301Z,100020.63
2023-04-10T06:59:17.855Z,100031.41
2023-04-10T07:02:21.526Z,100029.84
2023-04-10T07:05:26.616Z,100028.63
2023-04-10T07:08:30.202Z,100030.97
2023-04-10T07:11:33.721Z,100040.06
2023-04-10T07:14:37.672Z,100043.00
2023-04-10T07:17:41.198Z,100036.97
2023-04-10T07:20:46.246Z,100040.78
2023-04-10T07:23:49.637Z,100039.31
2023-04-10T07:26:53.202Z,100035.50
2023-04-10T07:29:57.439Z,100034.66
2023-04-10T07:33:01.366Z,100036.13
2023-04-10T07:36:07.289Z,100027.94
2023-04-10T07:39:10.685Z,100019.16
2023-04-10T07:42:14.295Z,100031.59
2023-04-10T07:45:17.742Z,100030.50
2023-04-10T07:48:21.295Z,100027.22
2023-04-10T07:51:26.203Z,100040.53
2023-04-10T07:54:29.698Z,100033.25
2023-04-10T07:57:33.476Z,100032.59
2023-04-10T08:00:36.958Z,100032.03
2023-04-10T08:03:41.876Z,100024.25
2023-04-10T08:06:46.996Z,100032.47
2023-04-10T08:09:50.438Z,100025.31
2023-04-10T08:12:53.912Z,100026.06
2023-04-10T08:15:57.295Z,100021.66
2023-04-10T08:19:01.376Z,100034.84
2023-04-10T08:22:06.151Z,100021.72
2023-04-10T08:25:10.448Z,100025.28
2023-04-10T08:28:13.986Z,100019.84
2023-04-10T08:31:17.558Z,100016.41
2023-04-10T08:34:21.056Z,100015.03
2023-04-10T08:37:27.170Z,100011.47
2023-04-10T08:40:30.682Z,100012.38
2023-04-10T08:43:35.707Z,100011.72
2023-04-10T08:46:44.689Z,100009.34
2023-04-10T08:49:55.204Z,100016.03
2023-04-10T08:53:04.062Z,100018.78
2023-04-10T08:56:09.675Z,100008.91
2023-04-10T08:59:13.052Z,100006.34
2023-04-10T09:02:16.874Z,100006.44
2023-04-10T09:05:20.769Z,100004.25
2023-04-10T09:08:25.534Z,100007.66
2023-04-10T09:12:01.502Z,99994.03
2023-04-10T09:15:06.011Z,99992.03
2023-04-10T09:18:09.514Z,99986.50
2023-04-10T09:21:14.560Z,99994.25
2023-04-10T09:24:21.478Z,99991.47
2023-04-10T09:27:32.934Z,99984.25
2023-04-10T09:30:39.381Z,99980.25
2023-04-10T09:33:42.863Z,99978.66
2023-04-10T09:36:54.354Z,99975.75
2023-04-10T09:39:59.249Z,99975.69
2023-04-10T09:43:18.662Z,99975.03
2023-04-10T09:46:28.916Z,99962.63
2023-04-10T09:49:46.772Z,99960.31
2023-04-10T09:52:59.137Z,99963.63
2023-04-10T09:56:05.628Z,99959.66
2023-04-10T09:59:09.754Z,99958.50
2023-04-10T10:02:15.786Z,99944.06
2023-04-10T10:05:20.465Z,99946.59
2023-04-10T10:08:24.782Z,99946.56
2023-04-10T10:11:31.085Z,99932.28
2023-04-10T10:14:38.348Z,99942.41
2023-04-10T10:17:48.478Z,99943.13
2023-04-10T10:20:52.463Z,99943.91
2023-04-10T10:23:58.277Z,99945.13
2023-04-10T10:27:05.574Z,99938.41
2023-04-10T10:30:25.725Z,99939.50
2023-04-10T10:33:37.110Z,99933.50
2023-04-10T10:36:42.023Z,99933.50
2023-04-10T10:39:55.557Z,99932.78
2023-04-10T10:43:09.949Z,99925.91
2023-04-10T10:46:22.803Z,99925.06
2023-04-10T10:49:53.053Z,99917.03
2023-04-10T10:52:58.777Z,99927.13
2023-04-10T10:56:38.539Z,99912.69
2023-04-10T10:59:58.701Z,99913.81
2023-04-10T11:03:30.489Z,99919.09
2023-04-10T11:06:53.615Z,99914.50
2023-04-10T11:09:57.963Z,99915.31
2023-04-10T11:13:18.345Z,99910.09
2023-04-10T11:16:24.631Z,99905.88
2023-04-10T11:19:28.299Z,99901.03
2023-04-10T11:22:32.213Z,99887.81
2023-04-10T11:25:51.556Z,99890.25
2023-04-10T11:28:55.490Z,99884.69
2023-04-10T11:32:01.577Z,99887.63
2023-04-10T11:35:05.953Z,99883.81
2023-04-10T11:38:14.751Z,99883.81
2023-04-10T11:41:18.446Z,99880.06
2023-04-10T11:44:31.348Z,99882.25
2023-04-10T11:47:36.392Z,99883.38
2023-04-10T11:50:40.047Z,99879.50
2023-04-10T11:53:44.042Z,99879.25
2023-04-10T11:56:58.101Z,99876.25
2023-04-10T12:00:01.586Z,99869.84
2023-04-10T12:03:06.656Z,99870.47
2023-04-10T12:06:12.480Z,99867.56
2023-04-10T12:09:17.610Z,99850.16
2023-04-10T12:12:21.799Z,99853.91
2023-04-10T12:15:29.196Z,99855.81
2023-04-10T12:18:34.645Z,99850.69
2023-04-10T12:21:40.676Z,99845.56
2023-04-10T12:24:46.185Z,99845.03
2023-04-10T12:27:51.699Z,99839.38
2023-04-10T12:30:55.466Z,99834.66
2023-04-10T12:34:01.301Z,99832.63
2023-04-10T12:37:05.057Z,99829.97
2023-04-10T12:40:09.421Z,99817.19
2023-04-10T12:43:12.794Z,99816.75
2023-04-10T12:46:25.167Z,99812.53
2023-04-10T12:49:29.880Z,99809.59
2023-04-10T12:52:33.441Z,99807.41
2023-04-10T12:55:37.777Z,99795.44
2023-04-10T12:58:42.716Z,99796.59
2023-04-10T13:01:46.636Z,99788.78
2023-04-10T13:04:51.724Z,99791.34
2023-04-10T13:07:55.665Z,99783.38
2023-04-10T13:11:02.946Z,99773.84
2023-04-10T13:14:06.370Z,99776.47
2023-04-10T13:17:09.731Z,99757.56
2023-04-10T13:20:14.666Z,99761.56
2023-04-10T13:23:21.196Z,99757.22
2023-04-10T13:26:24.784Z,99760.91
2023-04-10T13:29:29.062Z,99751.13
2023-04-10T13:32:32.541Z,99754.25
2023-04-10T13:35:37.297Z,99745.59
2023-04-10T13:38:41.004Z,99741.41
2023-04-10T13:41:44.580Z,99736.06
2023-04-10T13:44:47.862Z,99734.56
2023-04-10T13:47:51.694Z,99733.56
2023-04-10T13:50:57.031Z,99729.00
2023-04-10T13:54:00.532Z,99718.19
2023-04-10T13:57:04.438Z,99702.53
2023-04-10T14:00:10.409Z,99704.50
2023-04-10T14:03:17.120Z,99695.72
2023-04-10T14:06:21.960Z,99700.81
2023-04-10T14:09:25.816Z,99685.72
2023-04-10T14:12:29.472Z,99701.78
2023-04-10T14:15:33.113Z,99693.22
2023-04-10T14:18:37.413Z,99690.50
2023-04-10T14:21:44.907Z,99689.56
2023-04-10T14:24:48.947Z,99682.31
2023-04-10T14:27:53.392Z,99685.47
2023-04-10T14:30:56.975Z,99689.31
2023-04-10T14:34:00.517Z,99679.25
2023-04-10T14:37:05.686Z,99668.84
2023-04-10T14:40:10.707Z,99673.69
2023-04-10T14:43:14.183Z,99666.75
2023-04-10T14:46:19.413Z,99667.16
2023-04-10T14:49:23.017Z,99660.06
2023-04-10T14:52:27.817Z,99660.81
2023-04-10T14:55:31.731Z,99659.03
2023-04-10T14:58:35.414Z,99654.59
2023-04-10T15:01:39.098Z,99648.53
2023-04-10T15:04:42.785Z,99648.13
2023-04-10T15:07:47.693Z,99647.44
2023-04-10T15:10:52.736Z,99637.34
2023-04-10T15:13:56.856Z,99631.06
2023-04-10T15:17:00.665Z,99628.97
2023-04-10T15:20:05.141Z,99629.56
2023-04-10T15:23:10.434Z,99623.72
2023-04-10T15:26:14.872Z,99623.09
2023-04-10T15:29:19.765Z,99617.34
2023-04-10T15:32:23.296Z,99609.09
2023-04-10T15:35:29.125Z,99601.91
2023-04-10T15:38:36.147Z,99595.81
2023-04-10T15:41:39.835Z,99595.94
2023-04-10T15:44:43.522Z,99600.59
2023-04-10T15:47:48.356Z,99597.56
2023-04-10T15:50:51.816Z,99591.94
2023-04-10T15:53:57.048Z,99589.03
2023-04-10T15:57:01.656Z,99580.53
2023-04-10T16:00:05.963Z,99579.06
2023-04-10T16:03:10.325Z,99566.44
2023-04-10T16:06:14.103Z,99557.19
2023-04-10T16:12:25.629Z,99559.84
2023-04-10T16:15:29.113Z,99560.34
2023-04-10T16:18:32.743Z,99553.66
2023-04-10T16:21:36.310Z,99553.38
2023-04-10T16:24:41.204Z,99546.41
2023-04-10T16:27:44.989Z,99546.25
2023-04-10T16:30:48.316Z,99550.34
2023-04-10T16:33:51.773Z,99554.22
2023-04-10T16:36:55.411Z,99555.97
2023-04-10T16:40:00.527Z,99556.09
2023-04-10T16:43:04.194Z,99553.38
2023-04-10T16:46:07.972Z,99555.53
2023-04-10T16:49:11.663Z,99557.97
2023-04-10T16:52:15.082Z,99552.81
2023-04-10T16:55:21.251Z,99555.28
2023-04-10T16:58:24.840Z,99550.69
2023-04-10T17:01:28.656Z,99552.09
2023-04-10T17:04:32.167Z,99542.69
2023-04-10T17:07:35.810Z,99544.84
2023-04-10T17:10:41.546Z,99548.28
2023-04-10T17:13:45.081Z,99544.78
2023-04-10T17:16:48.870Z,99543.91
2023-04-10T17:19:52.375Z,99546.25
2023-04-10T17:22:55.734Z,99546.00
2023-04-10T17:26:00.734Z,99543.88
2023-04-10T17:29:04.458Z,99544.97
2023-04-10T17:32:09.076Z,99549.34
2023-04-10T17:35:12.585Z,99545.69
2023-04-10T17:38:16.025Z,99551.13
2023-04-10T17:41:21.202Z,99543.94
2023-04-10T17:44:24.822Z,99541.06
2023-04-10T17:47:28.394Z,99539.09
2023-04-10T17:50:31.956Z,99535.75
2023-04-10T17:53:36.083Z,99536.56
2023-04-10T17:56:40.986Z,99531.88
2023-04-10T17:59:44.460Z,99535.34
2023-04-10T18:02:48.068Z,99530.59
2023-04-10T18:05:51.750Z,99529.13
2023-04-10T18:08:55.369Z,99535.75
2023-04-10T18:12:01.472Z,99536.84
2023-04-10T18:15:05.368Z,99534.81
2023-04-10T18:18:08.908Z,99532.09
2023-04-10T18:21:13.944Z,99531.78
2023-04-10T18:24:17.588Z,99525.72
2023-04-10T18:27:22.467Z,99522.34
2023-04-10T18:30:26.795Z,99530.84
2023-04-10T18:33:30.414Z,99532.31
2023-04-10T18:36:34.031Z,99531.28
2023-04-10T18:39:38.387Z,99530.16
2023-04-10T18:42:43.509Z,99531.91
2023-04-10T18:45:46.991Z,99538.22
2023-04-10T18:48:53.473Z,99539.38
2023-04-10T18:51:56.979Z,99533.56
2023-04-10T18:55:00.336Z,99533.22
2023-04-10T18:58:05.468Z,99529.28
2023-04-10T19:01:10.713Z,99532.22
2023-04-10T19:04:14.394Z,99528.53
2023-04-10T19:07:17.805Z,99534.28
2023-04-10T19:10:21.528Z,99521.00
2023-04-10T19:13:26.603Z,99517.69
2023-04-10T19:16:30.393Z,99519.06
2023-04-10T19:19:34.026Z,99512.06
2023-04-10T19:22:39.766Z,99514.88
2023-04-10T19:25:43.868Z,99502.53
2023-04-10T19:28:48.774Z,99498.09
2023-04-10T19:31:52.118Z,99502.13
2023-04-10T19:34:55.945Z,99492.25
2023-04-10T19:37:59.362Z,99490.81
2023-04-10T19:41:02.773Z,99491.25
2023-04-10T19:44:11.044Z,99497.16
2023-04-10T19:47:14.625Z,99478.66
2023-04-10T19:50:18.284Z,99486.28
2023-04-10T19:53:21.742Z,99482.56
2023-04-10T19:56:27.011Z,99477.00
2023-04-10T19:59:32.383Z,99475.75
2023-04-10T20:02:36.299Z,99477.22
2023-04-10T20:05:40.063Z,99480.56
2023-04-10T20:08:43.928Z,99485.78
2023-04-10T20:11:47.415Z,99484.13
2023-04-10T20:14:52.292Z,99476.28
2023-04-10T20:17:56.000Z,99470.22
2023-04-10T20:20:59.419Z,99474.25
2023-04-10T20:24:02.904Z,99469.44
2023-04-10T20:27:06.358Z,99474.13
2023-04-10T20:30:11.897Z,99473.03
2023-04-10T20:33:15.844Z,99458.94
2023-04-10T20:36:19.263Z,99468.19
2023-04-10T20:39:24.799Z,99463.59
2023-04-10T20:42:28.305Z,99461.78
2023-04-10T20:45:33.200Z,99461.63
2023-04-10T20:48:38.084Z,99459.81
2023-04-10T20:51:41.741Z,99470.34
2023-04-10T20:54:45.145Z,99464.75
2023-04-10T20:57:48.796Z,99460.75
2023-04-10T21:00:54.406Z,99464.28
2023-04-10T21:03:59.166Z,99461.16
2023-04-10T21:07:02.676Z,99451.75
2023-04-10T21:10:06.689Z,99443.38
2023-04-10T21:13:10.151Z,99438.88
2023-04-10T21:16:17.611Z,99435.44
2023-04-10T21:19:21.252Z,99438.19
2023-04-10T21:22:24.631Z,99431.34
2023-04-10T21:25:28.752Z,99431.81
2023-04-10T21:28:33.004Z,99419.06
2023-04-10T21:31:38.665Z,99415.75
2023-04-10T21:34:42.634Z,99417.53
2023-04-10T21:37:46.096Z,99410.00
2023-04-10T21:40:53.124Z,99400.75
2023-04-10T21:44:00.540Z,99390.22
2023-04-10T21:47:05.705Z,99394.88
2023-04-10T21:50:10.410Z,99385.84
2023-04-10T21:53:14.115Z,99380.00
2023-04-10T21:56:18.188Z,99387.09
2023-04-10T21:59:21.767Z,99371.28
2023-04-10T22:02:26.857Z,99367.16
2023-04-10T22:05:31.858Z,99356.38
2023-04-10T22:08:35.337Z,99350.34
2023-04-10T22:11:40.109Z,99346.41
2023-04-10T22:14:43.579Z,99337.75
2023-04-10T22:17:48.606Z,99331.81
2023-04-10T22:20:52.291Z,99321.56
2023-04-10T22:23:55.855Z,99318.75
2023-04-10T22:26:59.782Z,99316.06
2023-04-10T22:30:04.498Z,99308.22
2023-04-10T22:33:10.318Z,99308.59
2023-04-10T22:36:14.252Z,99298.47
2023-04-10T22:39:19.184Z,99294.91
2023-04-10T22:42:23.233Z,99295.06
2023-04-10T22:45:26.578Z,99290.41
2023-04-10T22:48:31.898Z,99288.31
2023-04-10T22:51:36.012Z,99287.34
2023-04-10T22:54:39.646Z,99279.63
2023-04-10T22:57:43.004Z,99276.03
2023-04-10T23:00:46.454Z,99274.88
2023-04-10T23:03:54.054Z,99271.31
2023-04-10T23:06:58.261Z,99274.31
2023-04-10T23:10:01.876Z,99273.66
2023-04-10T23:13:05.241Z,99267.44
2023-04-10T23:16:09.571Z,99268.00
2023-04-10T23:19:14.789Z,99254.84
2023-04-10T23:22:18.221Z,99255.44
2023-04-10T23:25:21.901Z,99256.13
2023-04-10T23:28:25.600Z,99254.03
2023-04-10T23:31:29.388Z,99238.69
2023-04-10T23:34:34.568Z,99234.84
2023-04-10T23:37:38.149Z,99229.94
2023-04-10T23:40:41.660Z,99222.50
2023-04-10T23:43:45.781Z,99221.28
2023-04-10T23:46:49.681Z,99221.50
2023-04-10T23:49:55.705Z,99214.59
2023-04-10T23:53:00.101Z,99203.50
2023-04-10T23:56:03.557Z,99206.94
2023-04-10T23:59:07.098Z,99195.72
